Time;durP1;ratioP1;P1;durP2;ratioP2;P2;SDS_P1;SDS_P2;PMS_P1;PMS_P2;Temp;Humidity;BMP_temperature;BMP_pressure;BME280_temperature;BME280_humidity;BME280_pressure;Samples;Min_cycle;Max_cycle;Signal;HPM_P1;HPM_P2
2023/03/04 04:01:12;;;;;;;53.27;28.97;;;-2.70;99.90;;;;;;5489475;23;20269;-72
2023/03/04 04:03:38;;;;;;;56.03;28.63;;;-2.70;99.90;;;;;;4913970;29;20191;-72
2023/03/04 04:06:04;;;;;;;47.63;27.77;;;-2.70;99.90;;;;;;4914695;29;20182;-72
2023/03/04 04:08:30;;;;;;;48.57;28.27;;;-2.70;99.90;;;;;;4912013;29;20238;-73
2023/03/04 04:10:56;;;;;;;51.23;27.27;;;-2.70;99.90;;;;;;4908176;29;20199;-72
2023/03/04 04:13:22;;;;;;;48.83;27.23;;;-2.80;99.90;;;;;;4894559;29;20278;-73
2023/03/04 04:15:49;;;;;;;50.10;29.87;;;-2.80;99.90;;;;;;4895660;29;20215;-74
2023/03/04 04:18:15;;;;;;;46.77;27.67;;;-2.70;99.90;;;;;;4896019;29;20187;-74
2023/03/04 04:20:41;;;;;;;51.77;28.73;;;-2.70;99.90;;;;;;4898481;29;20203;-74
2023/03/04 04:23:07;;;;;;;54.10;30.40;;;-2.70;99.90;;;;;;4898149;29;20840;-75
2023/03/04 04:25:33;;;;;;;49.37;27.53;;;-2.70;99.90;;;;;;4898116;29;20240;-74
2023/03/04 04:27:59;;;;;;;44.70;27.53;;;-2.70;99.90;;;;;;4898189;29;20688;-73
2023/03/04 04:30:24;;;;;;;50.53;28.30;;;-2.70;99.90;;;;;;4897620;29;20204;-73
2023/03/04 04:32:51;;;;;;;42.73;27.10;;;-2.80;99.90;;;;;;4899194;29;20379;-73
2023/03/04 04:35:16;;;;;;;52.77;28.47;;;-2.80;99.90;;;;;;4897935;29;20215;-72
2023/03/04 04:37:42;;;;;;;50.00;28.90;;;-2.90;99.90;;;;;;4898033;29;20696;-73
2023/03/04 04:40:08;;;;;;;50.07;31.00;;;-2.90;99.90;;;;;;4898223;29;20648;-73
2023/03/04 04:42:34;;;;;;;51.43;28.40;;;-3.00;99.90;;;;;;4899976;29;20184;-74
2023/03/04 04:45:00;;;;;;;52.77;28.90;;;-3.10;99.90;;;;;;4899166;29;20626;-73
2023/03/04 04:47:26;;;;;;;58.17;29.20;;;-3.10;99.90;;;;;;4899117;29;20275;-73
2023/03/04 04:49:52;;;;;;;50.03;29.17;;;-3.10;99.90;;;;;;4898656;29;20183;-74
2023/03/04 04:52:17;;;;;;;53.63;30.37;;;-3.10;99.90;;;;;;4897669;29;20209;-73
2023/03/04 04:54:43;;;;;;;58.33;29.80;;;-3.10;99.90;;;;;;4898691;29;20212;-73
2023/03/04 04:57:09;;;;;;;51.60;30.13;;;-3.10;99.90;;;;;;4899168;29;20273;-74
2023/03/04 04:59:35;;;;;;;60.23;29.57;;;-3.20;99.90;;;;;;4898432;29;20184;-73
2023/03/04 05:02:00;;;;;;;47.60;28.43;;;-3.20;99.90;;;;;;4898335;29;20238;-73
2023/03/04 05:04:26;;;;;;;47.50;28.40;;;-3.20;99.90;;;;;;4898559;29;20352;-73
2023/03/04 05:06:52;;;;;;;49.77;27.70;;;-3.20;99.90;;;;;;4898477;29;20731;-73
2023/03/04 05:09:19;;;;;;;48.90;29.43;;;-3.30;99.90;;;;;;4896550;29;20184;-74
2023/03/04 05:11:45;;;;;;;52.63;28.27;;;-3.30;99.90;;;;;;4898437;29;20212;-74
2023/03/04 05:14:11;;;;;;;44.20;27.67;;;-3.20;99.90;;;;;;4898706;29;20583;-74
2023/03/04 05:16:37;;;;;;;53.83;29.00;;;-3.30;99.90;;;;;;4898065;29;20192;-73
2023/03/04 05:19:02;;;;;;;57.23;29.27;;;-3.30;99.90;;;;;;4898957;29;20275;-73
2023/03/04 05:21:28;;;;;;;56.60;29.93;;;-3.40;99.90;;;;;;4898796;29;20204;-73
2023/03/04 05:23:54;;;;;;;49.80;27.53;;;-3.50;99.90;;;;;;4898432;29;20577;-74
2023/03/04 05:26:20;;;;;;;46.30;28.17;;;-3.50;99.90;;;;;;4897061;29;20184;-74
2023/03/04 05:28:46;;;;;;;57.47;27.40;;;-3.50;99.90;;;;;;4896623;29;20190;-74
2023/03/04 05:31:12;;;;;;;52.57;27.67;;;-3.60;99.90;;;;;;4898671;29;20212;-74
2023/03/04 05:33:38;;;;;;;53.03;28.40;;;-3.60;99.90;;;;;;4903019;29;20191;-70
2023/03/04 05:36:05;;;;;;;56.17;27.93;;;-3.60;99.90;;;;;;4898093;29;20223;-70
2023/03/04 05:38:31;;;;;;;44.00;24.73;;;-3.60;99.90;;;;;;4899071;29;20246;-70
2023/03/04 05:41:01;;;;;;;49.13;26.50;;;-3.70;99.90;;;;;;4896624;29;20295;-70
2023/03/04 05:43:27;;;;;;;54.53;28.70;;;-3.80;99.90;;;;;;4896755;29;20184;-70
2023/03/04 05:45:54;;;;;;;45.60;27.07;;;-3.80;99.90;;;;;;4896505;29;20301;-70
2023/03/04 05:48:21;;;;;;;44.37;26.73;;;-3.80;99.90;;;;;;4897458;29;20247;-70
2023/03/04 05:50:55;;;;;;;50.13;28.00;;;-3.70;99.90;;;;;;4897564;29;20227;-70
2023/03/04 05:53:22;;;;;;;52.70;28.90;;;-3.70;99.90;;;;;;4897777;29;20191;-70
2023/03/04 05:55:48;;;;;;;55.67;27.83;;;-3.70;99.90;;;;;;4896693;29;20314;-70
2023/03/04 05:58:14;;;;;;;53.00;28.23;;;-3.70;99.90;;;;;;4896585;29;20192;-70
2023/03/04 06:00:40;;;;;;;44.47;26.80;;;-3.70;99.90;;;;;;4884334;29;20256;-71
2023/03/04 06:03:06;;;;;;;49.97;27.47;;;-3.70;99.90;;;;;;4897822;29;20248;-72
2023/03/04 06:05:31;;;;;;;48.47;31.33;;;-3.70;99.90;;;;;;4897210;29;20196;-72
2023/03/04 06:07:57;;;;;;;58.93;32.13;;;-3.70;99.90;;;;;;4896919;29;20183;-71
2023/03/04 06:10:23;;;;;;;50.87;30.40;;;-3.60;99.90;;;;;;4896598;29;20275;-71
2023/03/04 06:12:49;;;;;;;48.60;30.00;;;-3.60;99.90;;;;;;4896989;29;20202;-71
2023/03/04 06:15:14;;;;;;;53.43;29.13;;;-3.60;99.90;;;;;;4896592;29;20207;-73
2023/03/04 06:17:42;;;;;;;56.77;28.67;;;-3.60;99.90;;;;;;4902634;29;20246;-71
2023/03/04 06:20:09;;;;;;;59.60;30.17;;;-3.60;99.90;;;;;;4914088;29;20189;-71
2023/03/04 06:22:35;;;;;;;48.30;28.57;;;-3.60;99.90;;;;;;4914336;29;20627;-71
2023/03/04 06:25:01;;;;;;;52.07;30.50;;;-3.60;99.90;;;;;;4915598;29;20191;-71
2023/03/04 06:27:27;;;;;;;57.97;35.00;;;-3.60;99.90;;;;;;4914714;29;20198;-71
2023/03/04 06:29:53;;;;;;;60.83;34.30;;;-3.50;99.90;;;;;;4913715;29;20257;-71
2023/03/04 06:32:19;;;;;;;56.37;31.33;;;-3.40;99.90;;;;;;4914480;29;20246;-71
2023/03/04 06:34:45;;;;;;;56.43;32.53;;;-3.10;99.90;;;;;;4914168;29;20225;-71
2023/03/04 06:37:11;;;;;;;55.47;31.03;;;-2.90;99.90;;;;;;4915332;29;20179;-71
2023/03/04 06:39:36;;;;;;;65.03;33.43;;;-2.70;99.90;;;;;;4913723;29;20497;-71
2023/03/04 06:42:02;;;;;;;59.70;32.17;;;-2.60;99.90;;;;;;4914822;29;20199;-71
2023/03/04 06:44:28;;;;;;;54.00;29.00;;;-2.40;99.90;;;;;;4915085;29;20190;-71
2023/03/04 06:46:54;;;;;;;56.93;30.43;;;-2.20;99.90;;;;;;4914256;29;20187;-71
2023/03/04 06:49:20;;;;;;;53.87;30.07;;;-2.10;99.90;;;;;;4914744;29;20191;-71
2023/03/04 06:51:45;;;;;;;54.67;28.30;;;-2.00;99.90;;;;;;4915023;29;20210;-71
2023/03/04 06:54:11;;;;;;;48.87;28.13;;;-1.90;99.90;;;;;;4909568;29;20208;-71
2023/03/04 06:56:37;;;;;;;45.83;26.30;;;-1.70;99.90;;;;;;4896343;29;20184;-71
2023/03/04 06:59:03;;;;;;;46.30;28.07;;;-1.60;99.90;;;;;;4894638;29;20558;-71
2023/03/04 07:01:29;;;;;;;53.63;30.70;;;-1.50;99.90;;;;;;4895951;29;20604;-71
2023/03/04 07:03:56;;;;;;;49.90;31.93;;;-1.40;99.90;;;;;;4895783;29;20236;-71
2023/03/04 07:06:24;;;;;;;46.73;29.20;;;-1.30;99.90;;;;;;4896252;29;20190;-71
2023/03/04 07:08:51;;;;;;;58.93;31.50;;;-1.10;99.90;;;;;;4896174;29;20231;-71
2023/03/04 07:11:17;;;;;;;54.43;30.13;;;-0.90;99.90;;;;;;4894989;29;20680;-71
2023/03/04 07:13:43;;;;;;;51.20;28.70;;;-0.80;99.90;;;;;;4896166;29;20744;-71
2023/03/04 07:16:12;;;;;;;51.10;28.67;;;-0.80;99.90;;;;;;4894904;29;20783;-70
2023/03/04 07:18:38;;;;;;;53.40;31.37;;;-0.60;99.90;;;;;;4896081;29;20247;-71
2023/03/04 07:21:05;;;;;;;50.07;29.27;;;-0.50;99.90;;;;;;4899192;29;20255;-71
2023/03/04 07:23:31;;;;;;;49.70;29.43;;;-0.40;99.90;;;;;;4896340;29;20240;-72
2023/03/04 07:25:57;;;;;;;52.87;30.43;;;-0.30;99.90;;;;;;4894988;29;20195;-71
2023/03/04 07:28:22;;;;;;;55.20;28.17;;;-0.30;99.90;;;;;;4894530;29;20191;-71
2023/03/04 07:30:48;;;;;;;49.37;30.40;;;-0.30;99.90;;;;;;4896095;29;20979;-72
2023/03/04 07:33:14;;;;;;;54.23;30.10;;;-0.20;99.90;;;;;;4895127;29;20235;-71
2023/03/04 07:35:41;;;;;;;48.87;29.60;;;-0.10;99.90;;;;;;4895810;29;20216;-71
2023/03/04 07:38:06;;;;;;;52.23;30.60;;;0.00;99.90;;;;;;4895090;29;20195;-71
2023/03/04 07:40:32;;;;;;;53.70;28.97;;;0.10;99.90;;;;;;4895590;29;20259;-71
2023/03/04 07:42:58;;;;;;;51.47;28.17;;;0.20;99.90;;;;;;4895003;29;20274;-72
2023/03/04 07:45:24;;;;;;;49.83;29.17;;;0.30;99.90;;;;;;4896080;29;20192;-71
2023/03/04 07:47:50;;;;;;;55.33;30.00;;;0.30;99.90;;;;;;4896317;29;20195;-71
2023/03/04 07:50:17;;;;;;;45.60;28.80;;;0.40;99.90;;;;;;4894289;29;20192;-71
2023/03/04 07:52:46;;;;;;;44.70;28.53;;;0.50;99.90;;;;;;4894975;29;20657;-71
2023/03/04 07:55:13;;;;;;;48.97;27.80;;;0.50;99.90;;;;;;4912098;29;20293;-70
2023/03/04 07:57:40;;;;;;;50.17;29.10;;;0.60;99.90;;;;;;4918409;29;20186;-71
2023/03/04 08:00:07;;;;;;;45.40;26.87;;;0.60;99.90;;;;;;4918296;29;20234;-71
2023/03/04 08:02:33;;;;;;;42.50;26.90;;;0.60;99.90;;;;;;4918500;29;20214;-70
2023/03/04 08:04:59;;;;;;;44.23;28.03;;;0.70;99.90;;;;;;4918204;29;20580;-70
2023/03/04 08:07:24;;;;;;;47.37;29.83;;;0.80;99.90;;;;;;4917347;29;20190;-70
2023/03/04 08:09:50;;;;;;;51.03;29.93;;;0.80;99.90;;;;;;4918051;29;20197;-70
2023/03/04 08:12:16;;;;;;;47.33;28.97;;;1.00;99.90;;;;;;4918096;29;20351;-72
2023/03/04 08:14:42;;;;;;;46.70;27.40;;;1.00;99.90;;;;;;4917263;29;20270;-70
2023/03/04 08:17:08;;;;;;;54.13;29.77;;;1.10;99.90;;;;;;4918395;29;20186;-70
2023/03/04 08:19:35;;;;;;;52.70;29.47;;;1.10;99.90;;;;;;4917520;29;20183;-70
2023/03/04 08:22:01;;;;;;;46.67;25.67;;;1.20;99.90;;;;;;4917033;29;20203;-74
2023/03/04 08:24:27;;;;;;;46.30;26.47;;;1.30;99.90;;;;;;4918847;29;20246;-71
2023/03/04 08:26:53;;;;;;;41.77;26.90;;;1.30;99.90;;;;;;4918083;29;20187;-71
2023/03/04 08:29:22;;;;;;;41.80;25.57;;;1.40;99.90;;;;;;4917684;29;20281;-71
2023/03/04 08:31:50;;;;;;;45.83;27.90;;;1.50;99.90;;;;;;4918160;29;20207;-71
2023/03/04 08:34:17;;;;;;;47.33;29.30;;;1.50;99.90;;;;;;4916553;29;20207;-71
2023/03/04 08:36:43;;;;;;;43.70;28.90;;;1.50;99.90;;;;;;4917951;29;20179;-70
2023/03/04 08:39:11;;;;;;;47.00;28.60;;;1.40;99.90;;;;;;4917628;29;20194;-71
2023/03/04 08:41:37;;;;;;;48.93;27.20;;;1.40;99.90;;;;;;4917589;29;20222;-71
2023/03/04 08:44:03;;;;;;;40.27;25.87;;;1.40;99.90;;;;;;4918030;29;20644;-70
2023/03/04 08:46:29;;;;;;;44.80;26.03;;;1.40;99.90;;;;;;4917709;29;20191;-70
2023/03/04 08:48:55;;;;;;;42.50;26.90;;;1.50;99.90;;;;;;4917513;29;20191;-71
2023/03/04 08:51:20;;;;;;;38.83;25.33;;;1.60;99.90;;;;;;4913020;29;20234;-71
2023/03/04 08:53:46;;;;;;;42.33;26.60;;;1.60;99.90;;;;;;4898374;29;20540;-71
2023/03/04 08:56:13;;;;;;;44.40;26.10;;;1.60;99.90;;;;;;4895298;29;20216;-71
2023/03/04 08:58:39;;;;;;;44.37;25.17;;;1.70;99.90;;;;;;4897269;29;20236;-71
2023/03/04 09:01:07;;;;;;;49.07;27.40;;;1.70;99.90;;;;;;4896864;29;20211;-71
2023/03/04 09:03:33;;;;;;;42.53;24.43;;;1.70;99.90;;;;;;4898105;29;20190;-71
2023/03/04 09:06:01;;;;;;;43.27;24.70;;;1.70;99.90;;;;;;4897075;29;20192;-71
2023/03/04 09:08:27;;;;;;;46.17;25.30;;;1.70;99.90;;;;;;4897479;29;20230;-71
2023/03/04 09:10:53;;;;;;;47.00;25.00;;;1.80;99.90;;;;;;4897520;29;20247;-71
2023/03/04 09:13:20;;;;;;;41.00;24.90;;;1.90;99.90;;;;;;4898816;29;20231;-71
2023/03/04 09:15:49;;;;;;;44.10;25.53;;;2.10;99.90;;;;;;4898435;29;20695;-71
2023/03/04 09:18:16;;;;;;;45.47;27.37;;;2.10;99.90;;;;;;4897364;29;20567;-72
2023/03/04 09:20:43;;;;;;;40.10;24.83;;;2.10;99.90;;;;;;4897109;29;20211;-71
2023/03/04 09:23:09;;;;;;;41.03;25.20;;;2.20;99.90;;;;;;4898334;29;20191;-71
2023/03/04 09:25:36;;;;;;;41.07;24.17;;;2.10;99.90;;;;;;4898621;29;20593;-71
2023/03/04 09:28:02;;;;;;;39.47;26.73;;;2.10;99.90;;;;;;4898523;29;20263;-72
2023/03/04 09:30:28;;;;;;;41.80;24.57;;;2.00;99.90;;;;;;4897787;29;20191;-71
2023/03/04 09:32:54;;;;;;;38.53;24.17;;;2.00;99.90;;;;;;4898453;29;20196;-71
2023/03/04 09:35:20;;;;;;;41.23;28.10;;;2.00;99.90;;;;;;4898400;29;20215;-71
2023/03/04 09:37:47;;;;;;;43.33;25.17;;;2.10;99.90;;;;;;4898361;29;20561;-71
2023/03/04 09:40:27;;;;;;;39.33;24.87;;;2.00;99.90;;;;;;4896687;29;20176;-71
2023/03/04 09:43:02;;;;;;;37.87;23.73;;;2.10;99.90;;;;;;4898053;29;20186;-71
2023/03/04 09:45:50;;;;;;;41.63;24.53;;;2.10;99.90;;;;;;4896987;29;20282;-71
2023/03/04 09:48:21;;;;;;;38.20;25.13;;;2.20;99.90;;;;;;4898359;29;20188;-70
2023/03/04 09:51:18;;;;;;;43.43;25.20;;;2.30;99.90;;;;;;4898124;29;20239;-70
2023/03/04 09:54:01;;;;;;;36.03;22.23;;;2.50;99.90;;;;;;4896925;29;20198;-70
2023/03/04 09:56:27;;;;;;;41.93;24.10;;;2.70;99.90;;;;;;4898026;29;20196;-71
2023/03/04 09:59:14;;;;;;;39.47;22.83;;;2.90;99.90;;;;;;4897698;29;20202;-70
2023/03/04 10:01:47;;;;;;;37.23;22.23;;;3.00;99.90;;;;;;4897704;29;20219;-71
2023/03/04 10:04:54;;;;;;;33.23;19.43;;;3.20;99.90;;;;;;4897961;29;20275;-71
2023/03/04 10:07:28;;;;;;;32.50;19.07;;;3.30;99.90;;;;;;4861205;29;20188;-71
2023/03/04 10:10:05;;;;;;;30.03;19.57;;;3.40;99.90;;;;;;4893909;29;20200;-71
2023/03/04 10:12:35;;;;;;;32.67;20.87;;;3.50;99.90;;;;;;4897559;29;20207;-71
2023/03/04 10:15:21;;;;;;;31.63;22.80;;;3.50;99.90;;;;;;4897340;29;20240;-71
2023/03/04 10:17:52;;;;;;;32.07;21.53;;;3.40;99.90;;;;;;4941546;23;20293;-74
2023/03/04 10:20:22;;;;;;;41.27;22.93;;;3.30;99.90;;;;;;4934469;29;20190;-73
2023/03/04 10:22:51;;;;;;;36.13;21.17;;;3.30;99.90;;;;;;4935237;29;20275;-73
2023/03/04 10:25:28;;;;;;;35.43;22.00;;;3.30;99.90;;;;;;4935158;29;20187;-73
2023/03/04 10:28:03;;;;;;;35.23;21.47;;;3.30;99.90;;;;;;4917178;29;20584;-73
2023/03/04 10:30:50;;;;;;;34.43;21.80;;;3.30;99.90;;;;;;4915797;29;20392;-74
2023/03/04 10:33:19;;;;;;;33.23;25.17;;;3.20;99.90;;;;;;4914793;29;20187;-74
2023/03/04 10:35:53;;;;;;;38.57;22.03;;;3.20;99.90;;;;;;4916054;29;20222;-74
2023/03/04 10:38:21;;;;;;;37.53;22.43;;;3.30;99.90;;;;;;4915516;28;20206;-76
2023/03/04 10:40:47;;;;;;;44.80;22.60;;;3.30;99.90;;;;;;4935874;29;20644;-74
2023/03/04 10:43:17;;;;;;;36.23;23.07;;;3.40;99.90;;;;;;4916931;29;20226;-74
2023/03/04 10:45:44;;;;;;;37.03;23.23;;;3.50;99.90;;;;;;4916001;29;20599;-74
2023/03/04 10:48:29;;;;;;;33.93;21.30;;;3.40;99.90;;;;;;4915937;29;20284;-74
2023/03/04 10:51:18;;;;;;;37.63;23.17;;;3.40;99.90;;;;;;4915820;29;20207;-71
2023/03/04 10:53:44;;;;;;;38.57;21.70;;;3.40;99.90;;;;;;4916043;29;20869;-72
2023/03/04 10:56:39;;;;;;;32.90;22.20;;;3.50;99.90;;;;;;4915664;29;20222;-70
2023/03/04 10:59:42;;;;;;;32.17;20.33;;;3.60;99.90;;;;;;4917003;29;20210;-72
2023/03/04 11:02:22;;;;;;;34.40;21.30;;;3.80;99.90;;;;;;4901128;29;20183;-70
2023/03/04 11:05:04;;;;;;;34.97;21.10;;;4.00;99.90;;;;;;4900296;29;20667;-70
2023/03/04 11:07:29;;;;;;;34.10;20.63;;;4.10;99.90;;;;;;4914272;29;20214;-70
2023/03/04 11:10:10;;;;;;;33.77;21.10;;;3.90;99.90;;;;;;4914825;29;20555;-70
2023/03/04 11:12:36;;;;;;;36.13;20.73;;;3.90;99.90;;;;;;4915470;29;20187;-70
2023/03/04 11:15:02;;;;;;;34.33;20.67;;;3.80;99.90;;;;;;4915034;29;20400;-70
2023/03/04 11:17:42;;;;;;;33.77;20.60;;;3.70;99.90;;;;;;4915290;29;20218;-70
2023/03/04 11:20:31;;;;;;;31.67;19.63;;;3.70;99.90;;;;;;4914825;29;20191;-70
2023/03/04 11:23:03;;;;;;;26.47;18.67;;;3.70;99.90;;;;;;4915538;29;20253;-66
2023/03/04 11:25:34;;;;;;;28.33;19.03;;;3.60;99.90;;;;;;4915813;29;20234;-66
2023/03/04 11:28:12;;;;;;;31.03;18.70;;;3.70;99.90;;;;;;4914676;29;20207;-68
2023/03/04 11:30:43;;;;;;;32.50;19.57;;;3.90;99.90;;;;;;4914253;29;20203;-69
2023/03/04 11:33:24;;;;;;;27.37;19.53;;;4.00;99.90;;;;;;4914877;29;20187;-68
2023/03/04 11:36:20;;;;;;;30.40;20.63;;;4.20;99.90;;;;;;4913520;29;20209;-69
2023/03/04 11:38:49;;;;;;;31.60;20.20;;;4.30;99.90;;;;;;4914345;29;20179;-69
2023/03/04 11:41:35;;;;;;;36.43;20.60;;;4.30;99.90;;;;;;4914228;29;20187;-69
2023/03/04 11:44:04;;;;;;;31.37;20.70;;;4.20;99.90;;;;;;4920931;29;20214;-73
2023/03/04 11:47:13;;;;;;;32.50;20.33;;;4.10;99.90;;;;;;4913271;29;20629;-69
2023/03/04 11:50:03;;;;;;;31.77;20.77;;;4.10;99.90;;;;;;4913195;29;20218;-69
2023/03/04 11:53:15;;;;;;;29.90;19.90;;;4.20;99.90;;;;;;4894749;29;20184;-69
2023/03/04 11:56:02;;;;;;;30.10;20.17;;;4.10;99.90;;;;;;4908441;29;20220;-69
2023/03/04 11:58:54;;;;;;;34.13;22.57;;;3.80;99.90;;;;;;4906019;29;20203;-69
2023/03/04 12:01:52;;;;;;;34.53;20.93;;;3.70;99.90;;;;;;4887881;29;20279;-69
2023/03/04 12:04:32;;;;;;;31.77;21.53;;;3.60;99.90;;;;;;4899084;29;20710;-69
2023/03/04 12:07:23;;;;;;;28.67;20.43;;;3.70;99.90;;;;;;4913627;29;20768;-69
2023/03/04 12:09:55;;;;;;;37.10;22.93;;;3.80;99.90;;;;;;4913399;29;20183;-69
2023/03/04 12:12:41;;;;;;;34.57;21.87;;;3.80;99.90;;;;;;4914498;29;20195;-69
2023/03/04 12:15:19;;;;;;;36.67;23.10;;;3.80;99.90;;;;;;4914723;29;20278;-69
2023/03/04 12:18:17;;;;;;;37.07;24.10;;;3.90;99.90;;;;;;4914929;29;20229;-69
2023/03/04 12:21:08;;;;;;;35.60;22.50;;;3.90;99.90;;;;;;4914353;29;20232;-69
2023/03/04 12:24:04;;;;;;;34.20;21.20;;;4.00;99.90;;;;;;4914839;29;20211;-69
2023/03/04 12:27:01;;;;;;;31.93;20.73;;;4.00;99.90;;;;;;4914564;29;20265;-69
2023/03/04 12:29:45;;;;;;;34.33;21.47;;;4.10;99.90;;;;;;4914399;29;20180;-69
2023/03/04 12:32:30;;;;;;;30.47;20.30;;;4.10;99.90;;;;;;4914654;29;20195;-69
2023/03/04 12:35:08;;;;;;;37.13;21.93;;;4.10;99.90;;;;;;4913297;29;20203;-69
2023/03/04 12:37:43;;;;;;;33.93;20.87;;;4.20;99.90;;;;;;4914327;29;20209;-69
2023/03/04 12:40:15;;;;;;;36.23;21.87;;;4.40;99.90;;;;;;4915015;29;20194;-70
2023/03/04 12:42:43;;;;;;;33.40;21.10;;;4.30;99.90;;;;;;4918484;29;20222;-69
2023/03/04 12:45:26;;;;;;;34.17;21.97;;;4.20;99.90;;;;;;4918174;29;20195;-70
2023/03/04 12:48:25;;;;;;;31.00;21.87;;;4.30;99.90;;;;;;4917681;29;20218;-69
2023/03/04 12:51:16;;;;;;;30.93;22.07;;;4.40;99.90;;;;;;4898956;29;20184;-69
2023/03/04 12:54:14;;;;;;;37.93;23.77;;;4.40;99.90;;;;;;4899083;29;20199;-70
2023/03/04 12:57:01;;;;;;;37.20;23.30;;;4.40;99.90;;;;;;4887796;29;20279;-70
2023/03/04 12:59:39;;;;;;;35.33;24.03;;;4.30;99.90;;;;;;4898847;29;20192;-69
2023/03/04 13:02:25;;;;;;;32.43;22.63;;;4.20;99.90;;;;;;4898968;29;20196;-70
2023/03/04 13:05:00;;;;;;;40.10;24.00;;;4.10;99.90;;;;;;4916162;29;20179;-70
2023/03/04 13:07:43;;;;;;;33.10;22.17;;;4.10;99.90;;;;;;4917570;29;20228;-69
2023/03/04 13:10:13;;;;;;;33.23;23.43;;;4.10;99.90;;;;;;4917248;29;20191;-70
2023/03/04 13:13:00;;;;;;;38.07;25.53;;;4.20;99.90;;;;;;4932782;28;20206;-69
2023/03/04 13:15:28;;;;;;;36.30;23.00;;;4.20;99.90;;;;;;4927227;29;20285;-69
2023/03/04 13:18:00;;;;;;;40.27;25.30;;;4.20;99.90;;;;;;4917051;29;20222;-69
2023/03/04 13:20:29;;;;;;;34.97;22.43;;;4.00;99.90;;;;;;4917108;29;20183;-69
2023/03/04 13:22:54;;;;;;;39.90;23.83;;;4.00;99.90;;;;;;4917488;29;20190;-69
2023/03/04 13:25:43;;;;;;;35.50;23.10;;;4.10;99.90;;;;;;4917424;29;20191;-69
2023/03/04 13:28:08;;;;;;;37.17;24.17;;;4.20;99.90;;;;;;4917415;29;20599;-70
2023/03/04 13:30:34;;;;;;;37.40;23.10;;;4.20;99.90;;;;;;4916982;29;20187;-69
2023/03/04 13:33:15;;;;;;;41.73;25.60;;;4.10;99.90;;;;;;4916949;29;20194;-70
2023/03/04 13:36:00;;;;;;;46.67;25.07;;;4.10;99.90;;;;;;4916852;29;20207;-70
2023/03/04 13:38:59;;;;;;;44.27;25.73;;;4.10;99.90;;;;;;4915715;29;20184;-69
2023/03/04 13:41:22;;;;;;;46.47;27.03;;;4.20;99.90;;;;;;4915820;29;20690;-70
2023/03/04 13:43:55;;;;;;;43.37;24.77;;;4.10;99.90;;;;;;4917246;29;20282;-70
2023/03/04 13:46:26;;;;;;;39.17;24.23;;;3.90;99.90;;;;;;4915503;29;20211;-69
2023/03/04 13:48:55;;;;;;;43.00;25.37;;;3.80;99.90;;;;;;4916596;29;20652;-69
2023/03/04 13:51:36;;;;;;;45.93;25.73;;;3.80;99.90;;;;;;4916833;29;20219;-67
2023/03/04 13:54:25;;;;;;;43.50;26.20;;;3.90;99.90;;;;;;4916919;29;20222;-70
2023/03/04 13:57:20;;;;;;;47.10;26.83;;;3.80;99.90;;;;;;4916971;29;20218;-68
2023/03/04 13:59:53;;;;;;;55.50;27.07;;;3.80;99.90;;;;;;4912223;29;20660;-68
2023/03/04 14:02:21;;;;;;;49.70;28.70;;;3.80;99.90;;;;;;4916581;29;20187;-68
2023/03/04 14:04:53;;;;;;;46.07;26.70;;;3.90;99.90;;;;;;4916564;29;20175;-69
2023/03/04 14:07:30;;;;;;;50.43;26.93;;;3.90;99.90;;;;;;4916592;29;20215;-69
2023/03/04 14:10:03;;;;;;;49.73;28.03;;;3.80;99.90;;;;;;4916451;29;20187;-69
2023/03/04 14:12:35;;;;;;;45.47;26.50;;;3.70;99.90;;;;;;4917071;29;20197;-68
2023/03/04 14:15:13;;;;;;;45.87;25.77;;;3.70;99.90;;;;;;4916482;29;20636;-69
2023/03/04 14:17:44;;;;;;;47.23;26.93;;;3.70;99.90;;;;;;4916203;29;20211;-69
2023/03/04 14:20:29;;;;;;;40.17;25.00;;;3.70;99.90;;;;;;4915871;29;20235;-69
2023/03/04 14:22:56;;;;;;;51.17;25.77;;;3.60;99.90;;;;;;4916263;29;20191;-69
2023/03/04 14:25:30;;;;;;;47.53;28.53;;;3.50;99.90;;;;;;4916227;29;20243;-69
2023/03/04 14:28:17;;;;;;;45.13;27.00;;;3.40;99.90;;;;;;4916002;29;20209;-69
2023/03/04 14:30:55;;;;;;;52.00;27.73;;;3.50;99.90;;;;;;4915898;29;20270;-69
2023/03/04 14:33:27;;;;;;;46.87;26.50;;;3.60;99.90;;;;;;4916262;29;20187;-69
2023/03/04 14:35:57;;;;;;;44.90;27.23;;;3.70;99.90;;;;;;4931247;28;20226;-69
2023/03/04 14:38:32;;;;;;;48.73;26.43;;;3.70;99.90;;;;;;4929412;29;20254;-69
2023/03/04 14:41:06;;;;;;;44.73;25.03;;;3.60;99.90;;;;;;4916035;29;20610;-69
2023/03/04 14:43:41;;;;;;;48.37;27.27;;;3.50;99.90;;;;;;4916265;29;20272;-69
2023/03/04 14:46:11;;;;;;;44.37;25.97;;;3.40;99.90;;;;;;4915715;29;20211;-69
2023/03/04 14:48:37;;;;;;;46.40;26.27;;;3.40;99.90;;;;;;4914487;29;20191;-69
2023/03/04 14:51:03;;;;;;;39.37;24.17;;;3.40;99.90;;;;;;4914499;29;20582;-69
2023/03/04 14:53:32;;;;;;;47.70;25.73;;;3.30;99.90;;;;;;4915799;29;20202;-68
2023/03/04 14:56:06;;;;;;;46.17;26.87;;;3.30;99.90;;;;;;4915217;29;20630;-68
2023/03/04 14:58:35;;;;;;;40.53;25.63;;;3.30;99.90;;;;;;4915303;29;20723;-69
2023/03/04 15:01:06;;;;;;;41.77;24.20;;;3.40;99.90;;;;;;4915478;29;20183;-69
2023/03/04 15:03:33;;;;;;;46.13;24.07;;;3.40;99.90;;;;;;4911225;29;20218;-76
2023/03/04 15:06:17;;;;;;;42.60;24.40;;;3.30;99.90;;;;;;4913032;29;20687;-74
2023/03/04 15:08:43;;;;;;;40.63;23.13;;;3.30;99.90;;;;;;4915222;29;20209;-74
2023/03/04 15:11:20;;;;;;;37.73;22.60;;;3.40;99.90;;;;;;4913679;29;20198;-74
2023/03/04 15:13:49;;;;;;;42.10;24.47;;;3.30;99.90;;;;;;4915200;29;20191;-74
2023/03/04 15:16:16;;;;;;;44.57;24.53;;;3.40;99.90;;;;;;4914956;29;20219;-74
2023/03/04 15:19:01;;;;;;;41.77;25.17;;;3.40;99.90;;;;;;4914848;29;20190;-74
2023/03/04 15:21:31;;;;;;;42.07;25.00;;;3.30;99.90;;;;;;4914124;29;20182;-74
2023/03/04 15:23:58;;;;;;;49.00;28.03;;;3.40;99.90;;;;;;4918494;29;20211;-73
2023/03/04 15:26:24;;;;;;;44.83;25.97;;;3.40;99.90;;;;;;4914610;29;20778;-74
2023/03/04 15:28:50;;;;;;;44.87;24.97;;;3.40;99.90;;;;;;4914616;29;20191;-73
2023/03/04 15:31:21;;;;;;;39.93;23.50;;;3.40;99.90;;;;;;4913842;29;20190;-74
2023/03/04 15:33:47;;;;;;;39.87;24.73;;;3.40;99.90;;;;;;4933138;29;20183;-68
2023/03/04 15:36:15;;;;;;;41.10;23.63;;;3.40;99.90;;;;;;4919421;29;20223;-68
2023/03/04 15:38:44;;;;;;;36.57;22.93;;;3.40;99.90;;;;;;4914543;29;20531;-68
2023/03/04 15:41:19;;;;;;;34.23;22.47;;;3.40;99.90;;;;;;4914854;29;20186;-68
2023/03/04 15:43:48;;;;;;;31.20;21.53;;;3.30;99.90;;;;;;4914740;29;20216;-68
2023/03/04 15:46:14;;;;;;;37.17;23.27;;;3.30;99.90;;;;;;4914904;29;20218;-68
2023/03/04 15:48:40;;;;;;;34.87;21.10;;;3.30;99.90;;;;;;4914548;29;20263;-68
2023/03/04 15:51:15;;;;;;;36.17;22.17;;;3.30;99.90;;;;;;4913641;29;20183;-68
2023/03/04 15:53:47;;;;;;;39.93;22.90;;;3.30;99.90;;;;;;4900387;29;20186;-69
2023/03/04 15:56:25;;;;;;;36.57;22.83;;;3.30;99.90;;;;;;4914601;29;20225;-68
2023/03/04 15:58:56;;;;;;;40.40;23.63;;;3.20;99.90;;;;;;4914207;29;20183;-68
2023/03/04 16:01:23;;;;;;;33.30;21.90;;;3.10;99.90;;;;;;4914633;29;20187;-68
2023/03/04 16:03:50;;;;;;;39.90;23.20;;;3.00;99.90;;;;;;4914578;29;20270;-67
2023/03/04 16:06:19;;;;;;;41.60;24.57;;;3.00;99.90;;;;;;4914494;29;20210;-68
2023/03/04 16:08:48;;;;;;;40.80;22.23;;;3.00;99.90;;;;;;4914280;29;20187;-68
2023/03/04 16:11:22;;;;;;;38.23;24.00;;;3.00;99.90;;;;;;4914629;29;20190;-68
2023/03/04 16:13:48;;;;;;;37.03;22.40;;;3.00;99.90;;;;;;4914431;29;20659;-67
2023/03/04 16:16:14;;;;;;;38.77;22.63;;;3.00;99.90;;;;;;4918152;29;20233;-67
2023/03/04 16:18:41;;;;;;;38.07;23.97;;;3.00;99.90;;;;;;4917707;29;20214;-67
2023/03/04 16:21:11;;;;;;;34.97;23.47;;;3.00;99.90;;;;;;4940449;23;20234;-70
2023/03/04 16:23:40;;;;;;;38.17;24.00;;;3.00;99.90;;;;;;4918173;29;20187;-71
2023/03/04 16:26:12;;;;;;;36.23;22.33;;;3.00;99.90;;;;;;4918366;29;20273;-71
2023/03/04 16:28:38;;;;;;;33.27;21.57;;;3.00;99.90;;;;;;4917357;29;20652;-71
2023/03/04 16:31:04;;;;;;;36.97;22.87;;;2.90;99.90;;;;;;4929585;29;20237;-70
2023/03/04 16:33:30;;;;;;;36.90;22.93;;;2.90;99.90;;;;;;4935771;29;20191;-69
2023/03/04 16:35:55;;;;;;;36.20;22.77;;;3.00;99.90;;;;;;4935740;29;20213;-71
2023/03/04 16:38:28;;;;;;;36.47;24.13;;;3.00;99.90;;;;;;4935877;29;20183;-71
2023/03/04 16:40:55;;;;;;;37.13;23.07;;;3.00;99.90;;;;;;4936834;29;20202;-71
2023/03/04 16:43:21;;;;;;;35.17;23.43;;;3.00;99.90;;;;;;4937094;29;20178;-70
2023/03/04 16:45:47;;;;;;;38.07;23.53;;;3.00;99.90;;;;;;4936907;29;20198;-69
2023/03/04 16:48:14;;;;;;;38.67;24.80;;;3.00;99.90;;;;;;4936874;29;20194;-69
2023/03/04 16:50:40;;;;;;;35.47;23.37;;;3.10;99.90;;;;;;4935146;29;20214;-69
2023/03/04 16:53:21;;;;;;;40.10;24.30;;;3.10;99.90;;;;;;4935834;29;20182;-69
2023/03/04 16:55:46;;;;;;;38.40;23.10;;;3.00;99.90;;;;;;4935715;29;20210;-69